CheckWX is a tool to help pilots better visualize weather data.  It is not intended as a substitute for an official pre-flight weather briefing.

07:20:32 UTC

KIXD TAF
New Century Aircenter Airport
Olathe, Kansas, USA
KIXD 190520Z 1906/2006 VRB03KT P6SM BKN100 FM190800 VRB03KT P6SM VCTS OVC035CB FM191100 VRB03KT P6SM BKN022 FM191500 03005KT P6SM VCSH OVC025 FM192000 01006KT P6SM VCSH BKN045

Jun-19@
06:00 UTC

Jun-19 @ 06:00 UTC

Jun-19@
08:00 UTC

Jun-19 @ 08:00 UTC

KIXD 190520Z 1906/2006 VRB03KT P6SM BKN100
Wind
  • Variable at 3 KTS
Cloud Levels
  • Broken at 10,000' AGL

Jun-19@
08:00 UTC

Jun-19 @ 08:00 UTC

Jun-19@
11:00 UTC

Jun-19 @ 11:00 UTC

FM190800 VRB03KT P6SM VCTS OVC035CB

From

From Standard forecast or significant change

Wind
  • Variable at 3 KTS
Conditions
Area Thunderstorm
Cloud Levels
  • Overcast at 3,500' AGL

Jun-19@
11:00 UTC

Jun-19 @ 11:00 UTC

Jun-19@
15:00 UTC

Jun-19 @ 15:00 UTC

FM191100 VRB03KT P6SM BKN022

From

From Standard forecast or significant change

Wind
  • Variable at 3 KTS
Cloud Levels
  • Broken at 2,200' AGL

Jun-19@
15:00 UTC

Jun-19 @ 15:00 UTC

Jun-19@
20:00 UTC

Jun-19 @ 20:00 UTC

FM191500 03005KT P6SM VCSH OVC025

From

From Standard forecast or significant change

Wind
  • 030° at 5 KTS
Cloud Levels
  • Overcast at 2,500' AGL

Jun-19@
20:00 UTC

Jun-19 @ 20:00 UTC

Jun-20@
06:00 UTC

Jun-20 @ 06:00 UTC

FM192000 01006KT P6SM VCSH BKN045

From

From Standard forecast or significant change

Wind
  • 010° at 6 KTS
Cloud Levels
  • Broken at 4,500' AGL